Time;durP1;ratioP1;P1;durP2;ratioP2;P2;SDS_P1;SDS_P2;PMS_P1;PMS_P2;Temp;Humidity;BMP_temperature;BMP_pressure;BME280_temperature;BME280_humidity;BME280_pressure;Samples;Min_cycle;Max_cycle;Signal;HPM_P1;HPM_P2
2022/07/15 00:00:41;;;;;;;37.85;4.03;;;;;;;;;;4916886;29;20131;-69
2022/07/15 00:03:08;;;;;;;13.63;2.08;;;;;;;;;;4917092;29;20170;-70
2022/07/15 00:05:35;;;;;;;18.42;2.55;;;;;;;;;;4916750;29;20396;-70
2022/07/15 00:08:01;;;;;;;41.67;4.03;;;;;;;;;;4916746;29;20127;-69
2022/07/15 00:10:28;;;;;;;13.85;2.20;;;;;;;;;;4917260;29;20044;-69
2022/07/15 00:12:56;;;;;;;14.35;2.28;;;;;;;;;;4916719;29;20096;-70
2022/07/15 00:15:27;;;;;;;18.30;2.80;;;;;;;;;;4920009;29;20071;-69
2022/07/15 00:17:54;;;;;;;19.63;2.53;;;;;;;;;;4916586;29;20123;-70
2022/07/15 00:20:21;;;;;;;15.82;2.17;;;;;;;;;;4916894;29;20052;-70
2022/07/15 00:22:48;;;;;;;18.33;3.00;;;;;;;;;;4916602;29;20441;-70
2022/07/15 00:25:15;;;;;;;10.02;1.92;;;;;;;;;;4916288;29;20068;-70
2022/07/15 00:27:51;;;;;;;29.52;3.28;;;;;;;;;;4916737;29;20123;-70
2022/07/15 00:30:17;;;;;;;26.52;3.30;;;;;;;;;;4918906;29;20519;-69
2022/07/15 00:32:44;;;;;;;35.53;4.03;;;;;;;;;;4899296;29;20128;-72
2022/07/15 00:35:10;;;;;;;29.75;3.38;;;;;;;;;;4914211;29;20076;-69
2022/07/15 00:37:37;;;;;;;23.02;2.63;;;;;;;;;;4916476;29;20378;-69
2022/07/15 00:40:04;;;;;;;13.00;2.22;;;;;;;;;;4899430;29;20059;-69
2022/07/15 00:42:46;;;;;;;26.17;3.00;;;;;;;;;;4917340;29;20044;-69
2022/07/15 00:45:20;;;;;;;21.63;2.92;;;;;;;;;;4898616;29;20060;-66
2022/07/15 00:47:50;;;;;;;22.60;2.65;;;;;;;;;;4915775;29;20120;-69
2022/07/15 00:50:18;;;;;;;35.65;3.58;;;;;;;;;;4915713;29;20048;-70
2022/07/15 00:52:47;;;;;;;19.02;2.85;;;;;;;;;;4899646;29;20501;-72
2022/07/15 00:55:14;;;;;;;22.23;2.75;;;;;;;;;;4916204;29;20497;-70
2022/07/15 00:57:45;;;;;;;17.02;2.65;;;;;;;;;;4899179;29;20075;-68
2022/07/15 01:00:12;;;;;;;30.58;3.42;;;;;;;;;;4915832;29;20052;-67
2022/07/15 01:02:40;;;;;;;18.13;2.38;;;;;;;;;;4915835;29;20067;-68
2022/07/15 01:05:07;;;;;;;27.20;3.28;;;;;;;;;;4914603;29;20044;-67
2022/07/15 01:07:34;;;;;;;17.80;2.38;;;;;;;;;;4899343;29;20071;-69
2022/07/15 01:10:01;;;;;;;20.13;2.58;;;;;;;;;;4917633;29;20083;-69
2022/07/15 01:12:27;;;;;;;24.63;3.45;;;;;;;;;;4918560;29;20055;-69
2022/07/15 01:14:55;;;;;;;22.75;2.55;;;;;;;;;;4898569;29;20139;-69
2022/07/15 01:17:21;;;;;;;24.27;3.10;;;;;;;;;;4914195;29;20056;-70
2022/07/15 01:19:48;;;;;;;19.60;2.53;;;;;;;;;;4899258;29;20406;-69
2022/07/15 01:22:15;;;;;;;33.70;4.25;;;;;;;;;;4898089;29;20048;-70
2022/07/15 01:24:41;;;;;;;14.10;2.42;;;;;;;;;;4917877;29;20071;-71
2022/07/15 01:27:16;;;;;;;14.57;2.50;;;;;;;;;;4915572;29;20040;-72
2022/07/15 01:29:44;;;;;;;18.70;2.72;;;;;;;;;;4915548;29;20036;-73
2022/07/15 01:32:12;;;;;;;32.70;3.33;;;;;;;;;;4912951;29;20045;-72
2022/07/15 01:34:39;;;;;;;19.40;2.75;;;;;;;;;;4915726;29;20119;-73
2022/07/15 01:37:06;;;;;;;23.45;2.97;;;;;;;;;;4898200;29;20103;-73
2022/07/15 01:39:36;;;;;;;32.45;3.40;;;;;;;;;;4897656;29;20047;-73
2022/07/15 01:42:05;;;;;;;31.90;3.22;;;;;;;;;;4917982;29;20497;-73
2022/07/15 01:44:33;;;;;;;17.23;2.58;;;;;;;;;;4915943;29;20493;-73
2022/07/15 01:47:00;;;;;;;24.95;3.28;;;;;;;;;;4897643;29;20133;-72
2022/07/15 01:49:31;;;;;;;23.98;2.72;;;;;;;;;;4898523;29;20051;-71
2022/07/15 01:52:18;;;;;;;36.47;3.67;;;;;;;;;;4897349;29;20051;-77
2022/07/15 01:54:45;;;;;;;16.05;2.28;;;;;;;;;;4898338;29;20060;-76
2022/07/15 01:57:12;;;;;;;12.75;2.00;;;;;;;;;;4916928;29;20044;-71
2022/07/15 01:59:47;;;;;;;42.08;3.95;;;;;;;;;;4914919;29;20457;-71
2022/07/15 02:02:19;;;;;;;21.90;3.13;;;;;;;;;;4913184;29;20091;-70
2022/07/15 02:04:45;;;;;;;52.72;4.63;;;;;;;;;;4898319;29;20063;-70
2022/07/15 02:07:12;;;;;;;39.42;3.70;;;;;;;;;;4914834;29;20059;-70
2022/07/15 02:09:39;;;;;;;43.05;3.15;;;;;;;;;;4913857;29;20041;-74
2022/07/15 02:12:06;;;;;;;25.90;3.17;;;;;;;;;;4896900;29;20119;-71
2022/07/15 02:14:38;;;;;;;48.85;4.45;;;;;;;;;;4897595;29;20064;-73
2022/07/15 02:17:07;;;;;;;45.00;3.97;;;;;;;;;;4897587;29;20048;-72
2022/07/15 02:19:38;;;;;;;32.65;3.65;;;;;;;;;;4897979;29;20051;-73
2022/07/15 02:22:05;;;;;;;23.90;3.33;;;;;;;;;;4901251;29;20075;-74
2022/07/15 02:24:31;;;;;;;19.08;2.58;;;;;;;;;;4914279;29;20075;-69
2022/07/15 02:26:58;;;;;;;32.38;3.58;;;;;;;;;;4916868;29;20051;-70
2022/07/15 02:29:26;;;;;;;138.25;9.82;;;;;;;;;;4897632;29;20044;-69
2022/07/15 02:31:53;;;;;;;36.13;4.20;;;;;;;;;;4898547;29;20210;-72
2022/07/15 02:34:20;;;;;;;32.75;3.78;;;;;;;;;;4897578;29;20063;-70
2022/07/15 02:36:47;;;;;;;21.50;3.22;;;;;;;;;;4921265;29;20040;-70
2022/07/15 02:39:14;;;;;;;22.45;3.05;;;;;;;;;;4897087;29;20556;-71
2022/07/15 02:41:41;;;;;;;55.05;4.95;;;;;;;;;;4914823;29;20171;-71
2022/07/15 02:44:11;;;;;;;33.53;3.35;;;;;;;;;;4897331;29;20139;-71
2022/07/15 02:46:40;;;;;;;16.70;2.88;;;;;;;;;;4895221;29;20638;-71
2022/07/15 02:49:07;;;;;;;27.58;4.03;;;;;;;;;;4911192;29;20040;-71
2022/07/15 02:51:34;;;;;;;30.83;3.45;;;;;;;;;;4917289;29;20052;-70
2022/07/15 02:54:01;;;;;;;18.42;2.58;;;;;;;;;;4897322;29;20410;-72
2022/07/15 02:56:30;;;;;;;46.05;4.22;;;;;;;;;;4895568;29;20132;-72
2022/07/15 02:58:58;;;;;;;49.10;4.57;;;;;;;;;;4913854;29;20048;-71
2022/07/15 03:01:25;;;;;;;12.70;2.40;;;;;;;;;;4898059;29;20107;-73
2022/07/15 03:03:53;;;;;;;22.05;3.58;;;;;;;;;;4898045;29;20107;-71
2022/07/15 03:06:21;;;;;;;55.45;6.95;;;;;;;;;;4897507;29;20036;-71
2022/07/15 03:08:48;;;;;;;44.30;6.30;;;;;;;;;;4898560;29;20063;-71
2022/07/15 03:11:17;;;;;;;42.85;5.95;;;;;;;;;;4915507;29;20056;-70
2022/07/15 03:13:45;;;;;;;18.50;3.90;;;;;;;;;;4901557;29;20505;-71
2022/07/15 03:16:12;;;;;;;24.23;3.63;;;;;;;;;;4900610;29;20076;-69
2022/07/15 03:18:43;;;;;;;24.95;3.35;;;;;;;;;;4920273;29;20040;-68
2022/07/15 03:21:10;;;;;;;17.88;2.78;;;;;;;;;;4920366;29;20079;-71
2022/07/15 03:23:37;;;;;;;23.52;3.08;;;;;;;;;;4917654;29;20051;-70
2022/07/15 03:26:04;;;;;;;42.33;3.95;;;;;;;;;;4917041;29;20059;-71
2022/07/15 03:28:30;;;;;;;15.82;2.45;;;;;;;;;;4900420;29;20071;-70
2022/07/15 03:30:58;;;;;;;17.73;2.65;;;;;;;;;;4900445;29;20048;-70
2022/07/15 03:33:24;;;;;;;15.35;2.63;;;;;;;;;;4917756;29;20040;-70
2022/07/15 03:35:52;;;;;;;17.58;2.70;;;;;;;;;;4900526;29;20123;-73
2022/07/15 03:38:21;;;;;;;25.27;3.45;;;;;;;;;;4900149;29;20104;-73
2022/07/15 03:40:49;;;;;;;25.75;2.92;;;;;;;;;;4900817;29;20130;-73
2022/07/15 03:43:16;;;;;;;14.85;2.42;;;;;;;;;;4899810;29;20378;-72
2022/07/15 03:45:46;;;;;;;18.75;2.30;;;;;;;;;;4917551;29;20052;-72
2022/07/15 03:48:15;;;;;;;31.73;3.92;;;;;;;;;;4900085;29;20055;-73
2022/07/15 03:50:41;;;;;;;19.27;2.78;;;;;;;;;;4917203;29;20040;-73
2022/07/15 03:53:08;;;;;;;39.72;4.05;;;;;;;;;;4915209;29;20058;-68
2022/07/15 03:55:36;;;;;;;15.25;2.17;;;;;;;;;;4917184;29;20071;-69
2022/07/15 03:58:03;;;;;;;25.75;3.10;;;;;;;;;;4916772;29;20054;-69
2022/07/15 04:00:32;;;;;;;50.00;4.47;;;;;;;;;;4897911;29;20454;-68
2022/07/15 04:02:59;;;;;;;32.90;3.72;;;;;;;;;;4919179;29;20036;-68
2022/07/15 04:05:26;;;;;;;20.42;2.70;;;;;;;;;;4899689;29;20059;-68
2022/07/15 04:07:52;;;;;;;49.95;4.60;;;;;;;;;;4899785;29;20412;-68
2022/07/15 04:10:19;;;;;;;51.90;4.47;;;;;;;;;;4919584;29;20048;-68
2022/07/15 04:12:45;;;;;;;20.23;2.90;;;;;;;;;;4916250;29;20127;-69
2022/07/15 04:15:16;;;;;;;30.85;3.28;;;;;;;;;;4883960;29;20103;-70
2022/07/15 04:17:44;;;;;;;17.73;2.17;;;;;;;;;;4917276;29;20143;-70
2022/07/15 04:20:15;;;;;;;29.60;3.10;;;;;;;;;;4898256;29;20048;-70
2022/07/15 04:22:46;;;;;;;50.38;4.45;;;;;;;;;;4899481;29;20052;-71
2022/07/15 04:25:18;;;;;;;23.35;2.70;;;;;;;;;;4917463;29;20056;-72
2022/07/15 04:27:46;;;;;;;28.10;3.10;;;;;;;;;;4916028;29;20476;-71
2022/07/15 04:30:12;;;;;;;47.25;4.82;;;;;;;;;;4918444;29;20052;-71
2022/07/15 04:32:46;;;;;;;48.88;4.88;;;;;;;;;;4898847;29;20059;-74
2022/07/15 04:35:14;;;;;;;33.58;3.65;;;;;;;;;;4899447;29;20044;-69
2022/07/15 04:37:41;;;;;;;26.50;2.80;;;;;;;;;;4899066;29;20048;-72
2022/07/15 04:40:09;;;;;;;155.43;14.05;;;;;;;;;;4918105;29;20139;-73
2022/07/15 04:42:38;;;;;;;60.33;7.13;;;;;;;;;;4898017;29;20052;-73
2022/07/15 04:45:08;;;;;;;19.35;3.22;;;;;;;;;;4899412;29;20043;-72
2022/07/15 04:47:35;;;;;;;32.38;3.97;;;;;;;;;;4916230;29;20505;-74
2022/07/15 04:52:52;;;;;;;27.40;3.22;;;;;;;;;;4899209;29;20530;-71
2022/07/15 04:55:19;;;;;;;89.13;6.45;;;;;;;;;;4915645;29;20048;-71
2022/07/15 04:57:50;;;;;;;77.78;6.93;;;;;;;;;;4918316;29;20044;-70
2022/07/15 05:00:17;;;;;;;41.00;3.95;;;;;;;;;;4902428;29;20052;-71
2022/07/15 05:02:44;;;;;;;60.70;5.22;;;;;;;;;;4898176;29;20040;-73
2022/07/15 05:05:12;;;;;;;26.70;2.55;;;;;;;;;;4913333;29;20040;-72
2022/07/15 05:07:38;;;;;;;33.67;3.10;;;;;;;;;;4898770;29;20048;-74
2022/07/15 05:10:06;;;;;;;25.92;2.83;;;;;;;;;;4898202;29;20455;-73
2022/07/15 05:12:34;;;;;;;23.58;2.45;;;;;;;;;;4898233;29;20051;-74
2022/07/15 05:15:01;;;;;;;21.42;3.55;;;;;;;;;;4898685;29;20107;-76
2022/07/15 05:17:27;;;;;;;42.95;4.15;;;;;;;;;;4899733;29;20120;-71
2022/07/15 05:19:54;;;;;;;11.90;2.30;;;;;;;;;;4899575;29;20055;-75
2022/07/15 05:22:22;;;;;;;30.48;3.20;;;;;;;;;;4915864;29;20047;-75
2022/07/15 05:24:49;;;;;;;11.40;1.80;;;;;;;;;;4917290;29;20119;-70
2022/07/15 05:27:17;;;;;;;17.63;2.28;;;;;;;;;;4898744;29;20054;-71
2022/07/15 05:29:47;;;;;;;37.05;3.25;;;;;;;;;;4897900;29;20139;-69
2022/07/15 05:32:15;;;;;;;32.33;3.38;;;;;;;;;;4913952;29;20044;-69
2022/07/15 05:34:43;;;;;;;17.48;2.05;;;;;;;;;;4899083;29;20617;-75
2022/07/15 05:37:12;;;;;;;51.55;4.53;;;;;;;;;;4897841;29;20096;-70
2022/07/15 05:39:53;;;;;;;15.75;2.28;;;;;;;;;;4917426;29;20044;-75
2022/07/15 05:42:28;;;;;;;27.23;2.85;;;;;;;;;;4917115;29;20040;-75
2022/07/15 05:44:55;;;;;;;54.80;5.13;;;;;;;;;;4916027;29;20064;-68
2022/07/15 05:47:22;;;;;;;83.35;5.97;;;;;;;;;;4896386;29;20076;-72
2022/07/15 05:49:49;;;;;;;42.35;3.97;;;;;;;;;;4897596;29;20424;-72
2022/07/15 05:52:16;;;;;;;48.53;4.55;;;;;;;;;;4915392;29;20063;-71
2022/07/15 05:54:43;;;;;;;8.98;1.58;;;;;;;;;;4897468;29;20044;-71
2022/07/15 05:57:09;;;;;;;30.52;2.88;;;;;;;;;;4917458;29;20052;-71
2022/07/15 05:59:36;;;;;;;31.23;3.53;;;;;;;;;;4897908;29;20044;-71
2022/07/15 06:02:02;;;;;;;31.67;3.55;;;;;;;;;;4915548;29;20054;-71
2022/07/15 06:04:33;;;;;;;33.13;3.45;;;;;;;;;;4897530;29;20040;-73
2022/07/15 06:07:01;;;;;;;17.35;2.33;;;;;;;;;;4897475;29;20052;-72
2022/07/15 06:09:29;;;;;;;30.60;2.75;;;;;;;;;;4897550;29;20040;-78
2022/07/15 06:11:55;;;;;;;35.28;3.85;;;;;;;;;;4896912;29;20043;-77
2022/07/15 06:14:22;;;;;;;27.20;2.65;;;;;;;;;;4914187;29;20179;-77
2022/07/15 06:16:50;;;;;;;13.95;2.13;;;;;;;;;;4898477;29;20078;-71
2022/07/15 06:19:17;;;;;;;31.55;3.15;;;;;;;;;;4897678;29;20087;-71
2022/07/15 06:21:43;;;;;;;21.20;2.50;;;;;;;;;;4914475;29;20063;-71
2022/07/15 06:24:10;;;;;;;19.90;2.55;;;;;;;;;;4916825;29;20060;-70
2022/07/15 06:26:39;;;;;;;26.60;2.65;;;;;;;;;;4915768;29;20052;-72
2022/07/15 06:29:06;;;;;;;19.45;2.42;;;;;;;;;;4914952;29;20120;-72
2022/07/15 06:31:33;;;;;;;25.33;2.80;;;;;;;;;;4897893;29;20048;-73
2022/07/15 06:34:00;;;;;;;16.88;2.17;;;;;;;;;;4897885;29;20051;-72
2022/07/15 06:36:27;;;;;;;21.98;2.58;;;;;;;;;;4897326;29;20040;-73
2022/07/15 06:38:54;;;;;;;18.48;2.13;;;;;;;;;;4914220;29;20040;-73
2022/07/15 06:41:22;;;;;;;59.75;4.82;;;;;;;;;;4914400;29;20081;-72
2022/07/15 06:43:56;;;;;;;9.43;1.85;;;;;;;;;;4901793;29;20079;-73
2022/07/15 06:46:33;;;;;;;21.30;2.70;;;;;;;;;;4901137;29;20067;-73
2022/07/15 06:49:02;;;;;;;27.27;2.97;;;;;;;;;;4901050;29;20494;-73
2022/07/15 06:51:29;;;;;;;14.68;1.80;;;;;;;;;;4900973;29;20581;-73
2022/07/15 06:53:56;;;;;;;11.95;1.67;;;;;;;;;;4901191;29;20055;-73
2022/07/15 06:56:29;;;;;;;25.73;2.53;;;;;;;;;;4902260;29;20036;-72
2022/07/15 06:58:55;;;;;;;21.67;2.65;;;;;;;;;;4901464;29;20063;-73
2022/07/15 07:01:22;;;;;;;65.53;6.20;;;;;;;;;;4917998;29;20040;-74
2022/07/15 07:03:50;;;;;;;9.45;1.50;;;;;;;;;;4900563;29;20068;-73
2022/07/15 07:06:29;;;;;;;24.33;3.95;;;;;;;;;;4900422;29;20051;-73
2022/07/15 07:08:56;;;;;;;36.50;4.32;;;;;;;;;;4900279;29;20143;-72
2022/07/15 07:11:22;;;;;;;21.60;2.85;;;;;;;;;;4916413;29;20049;-72
2022/07/15 07:13:50;;;;;;;30.58;3.35;;;;;;;;;;4918292;29;20123;-72
2022/07/15 07:16:16;;;;;;;40.95;3.83;;;;;;;;;;4920471;29;20143;-73
2022/07/15 07:18:45;;;;;;;47.92;4.25;;;;;;;;;;4917388;29;20451;-73
2022/07/15 07:21:12;;;;;;;26.88;3.05;;;;;;;;;;4917457;29;20047;-74
2022/07/15 07:23:39;;;;;;;43.22;9.60;;;;;;;;;;4913144;29;20110;-71
2022/07/15 07:26:07;;;;;;;37.08;4.05;;;;;;;;;;4917216;29;20111;-72
2022/07/15 07:28:34;;;;;;;17.70;2.50;;;;;;;;;;4917862;29;20040;-74
2022/07/15 07:31:01;;;;;;;24.88;2.75;;;;;;;;;;4917373;29;20079;-74
2022/07/15 07:33:28;;;;;;;20.48;2.35;;;;;;;;;;4917119;29;20059;-72
2022/07/15 07:35:55;;;;;;;18.08;2.47;;;;;;;;;;4917072;29;20036;-73
2022/07/15 07:38:21;;;;;;;42.65;3.97;;;;;;;;;;4916410;29;20048;-76
2022/07/15 07:40:48;;;;;;;27.90;3.25;;;;;;;;;;4917668;29;20040;-67
2022/07/15 07:43:15;;;;;;;28.92;2.70;;;;;;;;;;4916746;29;20511;-71
2022/07/15 07:45:42;;;;;;;40.80;4.93;;;;;;;;;;4914870;29;20036;-72
2022/07/15 07:48:09;;;;;;;51.15;4.57;;;;;;;;;;4914772;29;20123;-71
2022/07/15 07:50:36;;;;;;;54.80;4.78;;;;;;;;;;4915703;29;20071;-71
2022/07/15 07:53:02;;;;;;;57.30;5.15;;;;;;;;;;4915282;29;20048;-75
2022/07/15 07:55:29;;;;;;;30.65;2.97;;;;;;;;;;4914818;29;20040;-72
2022/07/15 07:57:57;;;;;;;36.78;3.72;;;;;;;;;;4915271;29;20048;-73
2022/07/15 08:00:26;;;;;;;39.70;3.80;;;;;;;;;;4916061;29;20095;-74
2022/07/15 08:02:53;;;;;;;32.80;3.22;;;;;;;;;;4916436;29;20043;-74
2022/07/15 08:05:20;;;;;;;23.52;2.55;;;;;;;;;;4916157;29;20115;-74
2022/07/15 08:07:51;;;;;;;16.70;2.10;;;;;;;;;;4917024;29;20044;-74
2022/07/15 08:10:21;;;;;;;39.25;3.13;;;;;;;;;;4916351;29;20047;-74
2022/07/15 08:12:48;;;;;;;166.75;13.57;;;;;;;;;;4916093;29;20166;-77
2022/07/15 08:15:15;;;;;;;33.00;3.97;;;;;;;;;;4916223;29;20051;-76
2022/07/15 08:17:42;;;;;;;15.48;1.95;;;;;;;;;;4916523;29;20042;-74
2022/07/15 08:20:09;;;;;;;69.32;4.93;;;;;;;;;;4916589;29;20107;-73
2022/07/15 08:22:36;;;;;;;37.28;3.15;;;;;;;;;;4916589;29;20079;-74
2022/07/15 08:25:03;;;;;;;130.68;9.45;;;;;;;;;;4916057;29;20059;-72
2022/07/15 08:27:30;;;;;;;37.63;3.05;;;;;;;;;;4915756;29;20044;-75
2022/07/15 08:29:57;;;;;;;25.08;2.85;;;;;;;;;;4916549;29;20040;-75
2022/07/15 08:32:24;;;;;;;43.30;3.22;;;;;;;;;;4915703;29;20055;-80
2022/07/15 08:34:51;;;;;;;21.55;2.22;;;;;;;;;;4916274;29;20044;-77
2022/07/15 08:37:18;;;;;;;29.33;3.55;;;;;;;;;;4915760;29;20418;-77
2022/07/15 08:39:44;;;;;;;27.17;2.95;;;;;;;;;;4916291;29;20048;-75
2022/07/15 08:42:11;;;;;;;29.15;6.85;;;;;;;;;;4915684;29;20048;-76
2022/07/15 08:44:38;;;;;;;39.10;4.28;;;;;;;;;;4915693;29;20044;-77
2022/07/15 08:47:05;;;;;;;27.20;3.40;;;;;;;;;;4915652;29;20040;-75
2022/07/15 08:49:50;;;;;;;100.03;8.85;;;;;;;;;;4914638;29;20523;-74
2022/07/15 08:52:17;;;;;;;44.42;4.60;;;;;;;;;;4915644;29;20056;-75
2022/07/15 08:54:43;;;;;;;82.25;6.45;;;;;;;;;;4915578;29;20043;-75
2022/07/15 08:57:10;;;;;;;24.65;3.25;;;;;;;;;;4914336;29;20051;-74
2022/07/15 08:59:37;;;;;;;24.67;2.63;;;;;;;;;;4915687;29;20036;-75
2022/07/15 09:02:04;;;;;;;33.22;3.30;;;;;;;;;;4916511;29;20052;-75
2022/07/15 09:04:33;;;;;;;36.35;3.85;;;;;;;;;;4915484;29;20051;-75
2022/07/15 09:07:03;;;;;;;37.28;3.85;;;;;;;;;;4915558;29;20044;-74
2022/07/15 09:09:34;;;;;;;50.65;5.47;;;;;;;;;;4915207;29;20051;-74
2022/07/15 09:12:03;;;;;;;30.13;3.42;;;;;;;;;;4914930;29;20047;-75
2022/07/15 09:14:41;;;;;;;26.70;3.25;;;;;;;;;;4915485;29;20063;-75
2022/07/15 09:17:08;;;;;;;33.60;4.05;;;;;;;;;;4915366;29;20067;-74
2022/07/15 09:19:55;;;;;;;26.38;3.65;;;;;;;;;;4916126;29;20044;-75
2022/07/15 09:22:24;;;;;;;33.92;4.15;;;;;;;;;;4915173;29;20059;-74
2022/07/15 09:25:01;;;;;;;15.65;1.77;;;;;;;;;;4915511;29;20060;-74
2022/07/15 09:27:29;;;;;;;41.45;3.70;;;;;;;;;;4915276;29;20103;-73
2022/07/15 09:36:01;;;;;;;40.55;3.55;;;;;;;;;;4915899;29;20040;-75
2022/07/15 09:38:31;;;;;;;26.23;3.58;;;;;;;;;;4914998;29;23186;-75
2022/07/15 09:40:58;;;;;;;62.40;5.88;;;;;;;;;;4915933;29;20497;-75
2022/07/15 09:43:25;;;;;;;45.67;4.57;;;;;;;;;;4914654;29;20118;-75
2022/07/15 09:46:01;;;;;;;41.75;3.63;;;;;;;;;;4914362;29;20040;-75
2022/07/15 09:48:28;;;;;;;35.03;4.53;;;;;;;;;;4915204;29;20048;-72
2022/07/15 09:50:59;;;;;;;36.05;3.08;;;;;;;;;;4914898;29;20047;-72
2022/07/15 09:53:25;;;;;;;24.45;2.08;;;;;;;;;;4914746;29;20432;-72
2022/07/15 09:55:53;;;;;;;32.47;2.65;;;;;;;;;;4915640;29;20053;-72
2022/07/15 09:58:20;;;;;;;45.00;4.35;;;;;;;;;;4914467;29;20083;-73
2022/07/15 10:00:47;;;;;;;42.60;3.83;;;;;;;;;;4914881;29;20040;-72
2022/07/15 10:03:16;;;;;;;23.67;2.38;;;;;;;;;;4915100;29;20107;-72
2022/07/15 10:05:43;;;;;;;22.23;2.47;;;;;;;;;;4915043;29;20493;-71
2022/07/15 10:08:11;;;;;;;19.42;2.35;;;;;;;;;;4914824;29;20126;-72
2022/07/15 10:10:39;;;;;;;26.60;2.25;;;;;;;;;;4915213;29;20048;-73
2022/07/15 10:13:24;;;;;;;50.85;4.22;;;;;;;;;;4914402;29;20501;-72
2022/07/15 10:15:57;;;;;;;37.72;3.50;;;;;;;;;;4914997;29;20142;-72
2022/07/15 10:18:42;;;;;;;87.38;5.47;;;;;;;;;;4920287;29;20489;-71
2022/07/15 10:21:18;;;;;;;27.50;4.35;;;;;;;;;;4921190;29;20040;-72
2022/07/15 10:23:56;;;;;;;16.33;6.78;;;;;;;;;;4906730;29;20048;-72
2022/07/15 10:26:41;;;;;;;171.40;13.00;;;;;;;;;;4920846;29;20048;-72
2022/07/15 10:29:08;;;;;;;221.18;16.02;;;;;;;;;;4921290;29;20056;-71
2022/07/15 10:31:37;;;;;;;22.73;2.95;;;;;;;;;;4921228;29;20050;-72
2022/07/15 10:34:04;;;;;;;19.90;2.75;;;;;;;;;;4920876;29;20048;-71
2022/07/15 10:36:43;;;;;;;21.83;2.20;;;;;;;;;;4920865;29;20036;-72
2022/07/15 10:39:10;;;;;;;18.95;2.22;;;;;;;;;;4909787;29;20054;-71
2022/07/15 10:41:56;;;;;;;15.25;2.20;;;;;;;;;;4920801;29;20040;-72
2022/07/15 10:44:23;;;;;;;45.00;3.72;;;;;;;;;;4920655;29;20075;-74
2022/07/15 10:47:09;;;;;;;29.20;2.55;;;;;;;;;;4921186;29;20512;-72
2022/07/15 10:49:36;;;;;;;23.33;2.53;;;;;;;;;;4920737;29;20099;-74
2022/07/15 10:52:10;;;;;;;19.15;2.25;;;;;;;;;;4920904;29;20044;-73
2022/07/15 10:54:36;;;;;;;27.08;2.50;;;;;;;;;;4921959;29;20050;-70
2022/07/15 10:57:03;;;;;;;21.85;2.88;;;;;;;;;;4920398;29;20160;-73
2022/07/15 10:59:34;;;;;;;22.42;2.08;;;;;;;;;;4920772;29;20047;-72
2022/07/15 11:02:01;;;;;;;27.83;2.97;;;;;;;;;;4921494;29;20413;-73
2022/07/15 11:04:29;;;;;;;46.60;3.70;;;;;;;;;;4920508;29;20052;-73
2022/07/15 11:07:02;;;;;;;16.50;1.98;;;;;;;;;;4920833;29;20047;-73
2022/07/15 11:09:43;;;;;;;44.05;3.67;;;;;;;;;;4921450;29;20479;-73
2022/07/15 11:12:13;;;;;;;17.88;2.55;;;;;;;;;;4920626;29;20115;-73
2022/07/15 11:14:44;;;;;;;31.35;2.45;;;;;;;;;;4920744;29;20040;-73
2022/07/15 11:17:11;;;;;;;52.85;4.70;;;;;;;;;;4920645;29;20128;-73
2022/07/15 11:19:39;;;;;;;27.23;3.53;;;;;;;;;;4921098;29;20048;-73
2022/07/15 11:22:07;;;;;;;277.75;21.15;;;;;;;;;;4920123;29;20087;-74
2022/07/15 11:24:34;;;;;;;37.00;3.53;;;;;;;;;;4913337;29;20104;-74
2022/07/15 11:27:01;;;;;;;9.07;1.88;;;;;;;;;;4905512;29;20044;-74
2022/07/15 11:29:41;;;;;;;23.60;2.10;;;;;;;;;;4901199;29;20108;-73
2022/07/15 11:32:12;;;;;;;27.80;2.35;;;;;;;;;;4902563;29;20157;-73
2022/07/15 11:34:46;;;;;;;30.60;2.65;;;;;;;;;;4917783;29;20100;-74
2022/07/15 11:37:18;;;;;;;43.60;3.22;;;;;;;;;;4904872;29;20036;-74
2022/07/15 11:39:46;;;;;;;49.35;4.28;;;;;;;;;;4904157;29;20045;-74
2022/07/15 11:45:09;;;;;;;35.83;3.28;;;;;;;;;;4904185;29;20036;-73
2022/07/15 11:47:49;;;;;;;20.77;2.22;;;;;;;;;;4916635;29;20075;-73
2022/07/15 11:50:16;;;;;;;31.17;2.92;;;;;;;;;;4902242;29;20040;-72
2022/07/15 11:52:42;;;;;;;49.85;3.95;;;;;;;;;;4917009;29;20040;-71
2022/07/15 11:55:14;;;;;;;34.63;2.85;;;;;;;;;;4902756;29;20047;-71
2022/07/15 11:57:43;;;;;;;31.08;3.15;;;;;;;;;;4909102;29;20041;-71
2022/07/15 12:00:10;;;;;;;38.63;3.00;;;;;;;;;;4902168;29;20096;-72
2022/07/15 12:02:37;;;;;;;174.27;12.05;;;;;;;;;;4902059;29;20040;-71
2022/07/15 12:05:05;;;;;;;104.57;7.53;;;;;;;;;;4902500;29;20081;-71
2022/07/15 12:07:42;;;;;;;40.13;3.08;;;;;;;;;;4916329;29;20047;-72
2022/07/15 12:10:09;;;;;;;28.15;2.45;;;;;;;;;;4912919;29;20549;-72
2022/07/15 12:12:54;;;;;;;58.35;4.82;;;;;;;;;;4916238;29;20044;-71
2022/07/15 12:15:21;;;;;;;15.98;1.70;;;;;;;;;;4916877;29;20050;-72
2022/07/15 12:17:48;;;;;;;17.92;2.55;;;;;;;;;;4916455;29;20048;-72
2022/07/15 12:20:15;;;;;;;40.47;2.97;;;;;;;;;;4916237;29;20052;-70
2022/07/15 12:23:01;;;;;;;187.05;12.48;;;;;;;;;;4916665;29;20418;-71
2022/07/15 12:25:27;;;;;;;45.65;3.13;;;;;;;;;;4915517;29;20503;-69
2022/07/15 12:27:54;;;;;;;26.60;2.10;;;;;;;;;;4916158;29;20497;-70
2022/07/15 12:30:29;;;;;;;41.20;3.30;;;;;;;;;;4916190;29;20067;-71
2022/07/15 12:33:12;;;;;;;60.25;4.13;;;;;;;;;;4916225;29;20047;-71
2022/07/15 12:35:40;;;;;;;33.10;2.85;;;;;;;;;;4907311;29;20048;-70
2022/07/15 12:38:06;;;;;;;180.43;12.68;;;;;;;;;;4916234;29;20395;-71
2022/07/15 12:40:33;;;;;;;19.80;1.77;;;;;;;;;;4915837;29;20048;-69
2022/07/15 12:43:00;;;;;;;26.10;2.05;;;;;;;;;;4915694;29;20032;-70
2022/07/15 12:45:29;;;;;;;563.38;49.20;;;;;;;;;;4915543;29;20656;-70
2022/07/15 12:47:59;;;;;;;38.65;2.42;;;;;;;;;;4915993;29;20044;-70
2022/07/15 12:50:26;;;;;;;40.53;3.53;;;;;;;;;;4915681;29;20490;-70
2022/07/15 12:52:53;;;;;;;29.15;3.00;;;;;;;;;;4916227;29;20075;-70
2022/07/15 12:55:21;;;;;;;24.65;2.20;;;;;;;;;;4915668;29;20154;-68
2022/07/15 12:57:48;;;;;;;28.40;2.22;;;;;;;;;;4915775;29;20115;-70
2022/07/15 13:00:16;;;;;;;32.42;3.13;;;;;;;;;;4915540;29;20502;-70
2022/07/15 13:03:01;;;;;;;25.05;2.08;;;;;;;;;;4915738;29;20040;-71
2022/07/15 13:05:29;;;;;;;56.08;4.45;;;;;;;;;;4915481;29;20119;-70
2022/07/15 13:07:55;;;;;;;20.67;1.90;;;;;;;;;;4915620;29;20052;-70
2022/07/15 13:10:22;;;;;;;34.42;2.80;;;;;;;;;;4915206;29;20048;-70
2022/07/15 13:12:49;;;;;;;32.05;2.78;;;;;;;;;;4915573;29;20123;-70
2022/07/15 13:15:16;;;;;;;33.80;2.95;;;;;;;;;;4915328;29;20044;-70
2022/07/15 13:17:49;;;;;;;43.35;3.47;;;;;;;;;;4915008;29;20060;-70
2022/07/15 13:20:16;;;;;;;37.58;2.92;;;;;;;;;;4915433;29;20052;-70
2022/07/15 13:22:42;;;;;;;30.88;2.97;;;;;;;;;;4915417;29;20044;-70
2022/07/15 13:25:09;;;;;;;39.67;2.90;;;;;;;;;;4914888;29;20119;-71
2022/07/15 13:27:36;;;;;;;21.63;2.03;;;;;;;;;;4915385;29;20054;-69
2022/07/15 13:30:03;;;;;;;86.90;5.85;;;;;;;;;;4915393;29;20099;-70
2022/07/15 13:32:30;;;;;;;37.80;3.90;;;;;;;;;;4914983;29;20054;-70
2022/07/15 13:34:57;;;;;;;28.20;2.28;;;;;;;;;;4915753;29;20048;-70
2022/07/15 13:37:24;;;;;;;36.63;3.10;;;;;;;;;;4914384;29;20048;-70
2022/07/15 13:39:51;;;;;;;24.33;2.35;;;;;;;;;;4914891;29;20040;-70
2022/07/15 13:42:17;;;;;;;34.75;2.55;;;;;;;;;;4915246;29;20036;-71
2022/07/15 13:44:44;;;;;;;29.05;2.35;;;;;;;;;;4898455;29;20446;-70
2022/07/15 13:47:11;;;;;;;15.38;1.85;;;;;;;;;;4915924;29;20486;-70
2022/07/15 13:52:23;;;;;;;62.83;5.05;;;;;;;;;;4913729;29;20044;-72
2022/07/15 13:54:50;;;;;;;33.10;2.92;;;;;;;;;;4915094;29;20047;-72
2022/07/15 13:57:18;;;;;;;17.52;1.67;;;;;;;;;;4898503;29;20059;-72
2022/07/15 13:59:44;;;;;;;230.73;14.35;;;;;;;;;;4915107;29;20048;-72
2022/07/15 14:02:12;;;;;;;50.17;3.75;;;;;;;;;;4915113;29;20048;-69
2022/07/15 14:04:39;;;;;;;16.05;1.70;;;;;;;;;;4899933;29;20041;-69
2022/07/15 14:07:05;;;;;;;63.03;4.57;;;;;;;;;;4899531;29;20063;-70
2022/07/15 14:09:32;;;;;;;31.65;2.90;;;;;;;;;;4906796;29;20086;-70
2022/07/15 14:12:00;;;;;;;27.15;2.30;;;;;;;;;;4914926;29;20063;-71
2022/07/15 14:14:26;;;;;;;46.40;3.55;;;;;;;;;;4914622;29;20546;-72
2022/07/15 14:16:53;;;;;;;54.97;4.43;;;;;;;;;;4895236;29;20102;-72
2022/07/15 14:19:20;;;;;;;72.40;6.47;;;;;;;;;;4908155;29;20047;-70
2022/07/15 14:21:48;;;;;;;30.63;2.25;;;;;;;;;;4906204;29;20044;-70
2022/07/15 14:24:19;;;;;;;34.25;2.47;;;;;;;;;;4899264;29;20582;-70
2022/07/15 14:26:46;;;;;;;24.17;2.20;;;;;;;;;;4899807;29;20059;-70
2022/07/15 14:29:13;;;;;;;20.00;1.83;;;;;;;;;;4911297;29;20402;-71
2022/07/15 14:31:40;;;;;;;92.90;7.25;;;;;;;;;;4908128;29;20075;-71
2022/07/15 14:34:07;;;;;;;21.88;1.83;;;;;;;;;;4906906;29;20043;-72
2022/07/15 14:36:33;;;;;;;18.70;1.92;;;;;;;;;;4907861;29;20421;-72
2022/07/15 14:39:00;;;;;;;55.30;4.25;;;;;;;;;;4899605;29;20078;-72
2022/07/15 14:41:26;;;;;;;36.65;2.90;;;;;;;;;;4897819;29;20041;-72
2022/07/15 14:43:53;;;;;;;24.65;1.95;;;;;;;;;;4898252;29;20059;-70
2022/07/15 14:46:20;;;;;;;30.10;2.63;;;;;;;;;;4909897;29;20044;-70
2022/07/15 14:48:47;;;;;;;49.22;3.95;;;;;;;;;;4905691;29;20147;-70
2022/07/15 14:51:14;;;;;;;10.27;1.38;;;;;;;;;;4899893;29;20480;-70